Hauptseite
METAR-TAF:

METAR-TAF

Flughäfen :

Flughafen Tozeur-Nefta

Tozeur, Tunesien

Breite: 33-55N, Länge: 008-06E, Höhe: 87 m

Beobachtung

Neuester Wetterbericht von vor 34 Minuten, um 06:00 UTC
Wind 14 kt aus Ost
Temperatur 30°C
Luftfeuchtigkeit 62%
Luftdruck 1010 hPa
Sichtweite: 8000 m

METAR: DTTZ 130600Z 10014KT 8000 NSC 30/22 Q1010

Zeit: 07:34 (06:34 UTC)

Prognose

Neuester Wetterbericht von vor 1 Stunde und 34 Minuten, um 05:00 UTC
Gültige Prognose vom 13 um 06 UTC bis 14 um 06 UTC
Wind 14 kt aus Ost
Sichtweite: 8000 m
Übergehend zu
vom 13 um 10 UTC bis 13 um 12 UTC
Wind 10 kt aus Süd
Übergehend zu
vom 13 um 19 UTC bis 13 um 21 UTC
Wind 3 kt aus unterschiedlichen Richtungen
Übergehend zu
vom 13 um 22 UTC bis 13 um 24 UTC
Wind 13 kt aus Ost

TAF: DTTZ 130500Z 1306/1406 10014KT 8000 NSC BECMG 1310/1312 18010KT BECMG 1319/1321 VRB03KT BECMG 1322/1324 09013KT

Wetterbeobachtungen und Prognosen von mehr als 4000 Flughäfen (METAR und TAF Bericht).

Die verfügbaren Stationen werden durch gelbe und rote Markierungen auf der Karte dargestellt.

Führen Sie die Maus auf sie, um den Namen der Station zu sehen.

Darauf klicken, um die Beobachtung von Wetterbeobachtungen und Prognosen zu sehen.

Um die Karte zu ändern : klicken Sie auf den grünen Tasten mit einem schwarzen Kreuz Zum Vergrößern, auf den grünen Button mit einem Gedankenstrich zu verkleinern, oder auf die grünen Pfeile für benachbarte Karten.


METAR-TAF: